createdAt,value
2022-11-29T00:01:24.761Z,101611.09
2022-11-29T00:03:51.563Z,101605.00
2022-11-29T00:06:20.724Z,101615.38
2022-11-29T00:08:47.856Z,101615.38
2022-11-29T00:11:44.502Z,101618.00
2022-11-29T00:14:14.922Z,101617.16
2022-11-29T00:16:41.742Z,101618.91
2022-11-29T00:19:09.879Z,101622.41
2022-11-29T00:21:36.576Z,101620.69
2022-11-29T00:24:03.065Z,101618.06
2022-11-29T00:26:29.493Z,101619.75
2022-11-29T00:28:55.984Z,101626.59
2022-11-29T00:31:27.836Z,101626.53
2022-11-29T00:33:54.280Z,101632.53
2022-11-29T00:36:20.763Z,101635.13
2022-11-29T00:38:47.185Z,101629.09
2022-11-29T00:41:13.714Z,101636.84
2022-11-29T00:43:40.507Z,101631.69
2022-11-29T00:46:08.063Z,101627.34
2022-11-29T00:48:35.369Z,101628.25
2022-11-29T00:51:02.693Z,101616.13
2022-11-29T00:53:29.178Z,101621.34
2022-11-29T00:55:56.205Z,101626.59
2022-11-29T00:58:23.103Z,101623.94
2022-11-29T01:00:49.826Z,101623.91
2022-11-29T01:03:17.292Z,101628.25
2022-11-29T01:05:44.467Z,101623.94
2022-11-29T01:08:11.636Z,101620.50
2022-11-29T01:10:38.106Z,101631.72
2022-11-29T01:13:04.799Z,101635.22
2022-11-29T01:15:31.421Z,101642.97
2022-11-29T01:17:58.356Z,101639.50
2022-11-29T01:20:24.800Z,101643.81
2022-11-29T01:22:51.215Z,101640.38
2022-11-29T01:25:19.254Z,101645.50
2022-11-29T01:27:46.242Z,101641.22
2022-11-29T01:30:14.570Z,101649.88
2022-11-29T01:32:41.824Z,101656.75
2022-11-29T01:35:08.840Z,101647.22
2022-11-29T01:37:35.515Z,101655.91
2022-11-29T01:40:02.027Z,101650.78
2022-11-29T01:42:28.441Z,101658.56
2022-11-29T01:45:33.074Z,101661.19
2022-11-29T01:47:59.645Z,101664.63
2022-11-29T01:50:26.138Z,101657.00
2022-11-29T01:52:52.940Z,101658.75
2022-11-29T01:55:19.427Z,101658.75
2022-11-29T01:57:46.111Z,101664.72
2022-11-29T02:00:17.897Z,101660.44
2022-11-29T02:02:45.948Z,101669.06
2022-11-29T02:05:14.568Z,101680.31
2022-11-29T02:07:45.497Z,101670.88
2022-11-29T02:10:13.281Z,101673.47
2022-11-29T02:13:00.770Z,101673.41
2022-11-29T02:15:54.049Z,101667.47
2022-11-29T02:18:49.475Z,101675.25
2022-11-29T02:21:25.051Z,101670.97
2022-11-29T02:24:12.636Z,101674.34
2022-11-29T02:27:10.155Z,101675.19
2022-11-29T02:30:08.558Z,101674.41
2022-11-29T02:33:13.829Z,101675.25
2022-11-29T02:36:07.545Z,101677.03
2022-11-29T02:38:55.660Z,101676.94
2022-11-29T02:41:42.697Z,101687.34
2022-11-29T02:44:21.350Z,101680.41
2022-11-29T02:47:15.319Z,101682.22
2022-11-29T02:50:02.569Z,101687.41
2022-11-29T02:52:53.722Z,101689.16
2022-11-29T02:55:43.208Z,101689.25
2022-11-29T02:58:19.381Z,101696.22
2022-11-29T03:01:05.355Z,101708.28
2022-11-29T03:03:38.999Z,101710.94
2022-11-29T03:06:21.560Z,101715.31
2022-11-29T03:09:04.439Z,101711.00
2022-11-29T03:11:41.127Z,101708.41
2022-11-29T03:14:24.060Z,101706.69
2022-11-29T03:17:12.803Z,101711.03
2022-11-29T03:20:03.789Z,101708.44
2022-11-29T03:23:15.410Z,101711.03
2022-11-29T03:25:54.939Z,101716.22
2022-11-29T03:28:30.994Z,101718.81
2022-11-29T03:31:24.015Z,101729.22
2022-11-29T03:34:22.922Z,101737.06
2022-11-29T03:36:56.626Z,101734.50
2022-11-29T03:40:03.232Z,101733.66
2022-11-29T03:42:50.788Z,101731.97
2022-11-29T03:45:42.298Z,101737.19
2022-11-29T03:48:29.356Z,101738.97
2022-11-29T03:51:19.600Z,101745.06
2022-11-29T03:53:58.314Z,101741.69
2022-11-29T03:56:36.542Z,101744.38
2022-11-29T03:59:08.836Z,101750.47
2022-11-29T04:02:01.009Z,101752.97
2022-11-29T04:04:56.693Z,101758.19
2022-11-29T04:07:47.763Z,101753.88
2022-11-29T04:10:43.692Z,101760.81
2022-11-29T04:13:46.857Z,101763.44
2022-11-29T04:16:39.699Z,101759.94
2022-11-29T04:19:19.817Z,101759.06
2022-11-29T04:22:14.144Z,101766.03
2022-11-29T04:25:03.295Z,101766.03
2022-11-29T04:28:08.745Z,101767.72
2022-11-29T04:31:17.001Z,101772.09
2022-11-29T04:33:46.088Z,101772.94
2022-11-29T04:36:30.794Z,101772.91
2022-11-29T04:39:15.678Z,101772.09
2022-11-29T04:41:57.060Z,101773.81
2022-11-29T04:44:50.675Z,101785.06
2022-11-29T04:47:40.339Z,101783.38
2022-11-29T04:50:39.199Z,101779.94
2022-11-29T04:53:23.675Z,101788.59
2022-11-29T04:56:01.167Z,101786.88
2022-11-29T04:59:02.055Z,101792.13
2022-11-29T05:01:56.478Z,101793.88
2022-11-29T05:04:56.138Z,101796.47
2022-11-29T05:07:35.878Z,101796.50
2022-11-29T05:10:05.348Z,101799.09
2022-11-29T05:13:17.270Z,101807.72
2022-11-29T05:16:01.793Z,101814.59
2022-11-29T05:18:36.999Z,101813.69
2022-11-29T05:21:12.626Z,101818.13
2022-11-29T05:24:17.130Z,101817.25
2022-11-29T05:26:54.794Z,101828.50
2022-11-29T05:30:02.932Z,101829.31
2022-11-29T05:32:44.576Z,101824.06
2022-11-29T05:35:32.898Z,101825.78
2022-11-29T05:38:08.489Z,101832.75
2022-11-29T05:40:59.997Z,101836.16
2022-11-29T05:43:43.165Z,101833.56
2022-11-29T05:46:33.888Z,101841.34
2022-11-29T05:49:18.394Z,101846.53
2022-11-29T05:51:58.222Z,101843.06
2022-11-29T05:54:33.791Z,101848.31
2022-11-29T05:57:13.844Z,101853.44
2022-11-29T05:59:42.361Z,101859.53
2022-11-29T06:02:17.488Z,101861.25
2022-11-29T06:04:55.085Z,101863.00
2022-11-29T06:07:41.066Z,101873.38
2022-11-29T06:10:17.819Z,101868.22
2022-11-29T06:12:54.995Z,101869.13
2022-11-29T06:15:43.369Z,101863.03
2022-11-29T06:18:23.687Z,101865.63
2022-11-29T06:21:18.625Z,101870.81
2022-11-29T06:24:25.720Z,101866.53
2022-11-29T06:26:52.401Z,101873.41
2022-11-29T06:29:34.225Z,101870.91
2022-11-29T06:32:26.841Z,101881.31
2022-11-29T06:35:03.355Z,101889.97
2022-11-29T06:37:36.474Z,101885.63
2022-11-29T06:40:03.751Z,101883.03
2022-11-29T06:42:30.444Z,101894.34
2022-11-29T06:44:57.105Z,101901.41
2022-11-29T06:47:32.619Z,101899.75
2022-11-29T06:50:35.821Z,101910.06
2022-11-29T06:53:13.943Z,101915.25
2022-11-29T06:56:18.030Z,101919.66
2022-11-29T06:58:47.437Z,101923.09
2022-11-29T07:01:49.862Z,101929.16
2022-11-29T07:04:27.025Z,101930.03
2022-11-29T07:06:53.747Z,101928.28
2022-11-29T07:09:25.602Z,101932.63
2022-11-29T07:11:52.303Z,101940.41
2022-11-29T07:14:18.973Z,101936.00
2022-11-29T07:17:15.413Z,101945.53
2022-11-29T07:19:57.224Z,101941.19
2022-11-29T07:22:48.565Z,101955.88
2022-11-29T07:25:30.909Z,101959.34
2022-11-29T07:28:03.428Z,101964.63
2022-11-29T07:31:08.615Z,101969.84
2022-11-29T07:34:03.069Z,101967.22
2022-11-29T07:36:52.434Z,101973.28
2022-11-29T07:39:37.081Z,101981.16
2022-11-29T07:42:34.440Z,101986.41
2022-11-29T07:45:11.168Z,101989.00
2022-11-29T07:47:37.602Z,101982.13
2022-11-29T07:50:04.305Z,101985.56
2022-11-29T07:52:30.822Z,101989.06
2022-11-29T07:54:57.330Z,101995.16
2022-11-29T07:57:23.754Z,101997.75
2022-11-29T07:59:50.239Z,101999.47
2022-11-29T08:02:27.151Z,102001.25
2022-11-29T08:04:53.624Z,102005.63
2022-11-29T08:07:20.070Z,102003.06
2022-11-29T08:09:46.815Z,102010.84
2022-11-29T08:12:13.528Z,102021.22
2022-11-29T08:14:40.052Z,102016.94
2022-11-29T08:17:06.586Z,102016.91
2022-11-29T08:19:33.022Z,102014.34
2022-11-29T08:21:59.524Z,102015.22
2022-11-29T08:24:26.822Z,102022.09
2022-11-29T08:26:53.326Z,102022.91
2022-11-29T08:29:19.914Z,102029.03
2022-11-29T08:31:53.992Z,102022.13
2022-11-29T08:34:21.935Z,102025.53
2022-11-29T08:36:49.178Z,102025.44
2022-11-29T08:39:15.921Z,102026.22
2022-11-29T08:41:42.409Z,102026.16
2022-11-29T08:44:08.962Z,102024.41
2022-11-29T08:46:54.722Z,102019.22
2022-11-29T08:49:21.152Z,102022.53
2022-11-29T08:51:47.548Z,102029.41
2022-11-29T08:54:14.039Z,102032.84
2022-11-29T08:59:27.124Z,102039.72
2022-11-29T09:01:53.601Z,102042.28
2022-11-29T09:04:20.078Z,102045.81
2022-11-29T09:06:49.587Z,102044.09
2022-11-29T09:09:16.941Z,102046.56
2022-11-29T09:11:48.106Z,102043.97
2022-11-29T09:14:16.925Z,102043.06
2022-11-29T09:16:43.513Z,102050.78
2022-11-29T09:19:10.374Z,102048.03
2022-11-29T09:21:36.863Z,102047.16
2022-11-29T09:24:06.573Z,102053.19
2022-11-29T09:26:35.661Z,102059.19
2022-11-29T09:29:03.813Z,102065.22
2022-11-29T09:31:32.147Z,102058.31
2022-11-29T09:33:59.210Z,102058.31
2022-11-29T09:36:28.966Z,102063.56
2022-11-29T09:38:57.290Z,102069.50
2022-11-29T09:41:51.110Z,102067.75
2022-11-29T09:44:30.151Z,102075.44
2022-11-29T09:47:33.160Z,102084.09
2022-11-29T09:50:31.311Z,102092.66
2022-11-29T09:53:26.486Z,102090.84
2022-11-29T09:56:14.574Z,102090.91
2022-11-29T09:59:02.659Z,102090.84
2022-11-29T10:01:38.760Z,102093.38
2022-11-29T10:04:12.354Z,102098.50
2022-11-29T10:06:44.219Z,102094.84
2022-11-29T10:09:38.065Z,102099.03
2022-11-29T10:12:27.641Z,102109.25
2022-11-29T10:15:01.851Z,102106.78
2022-11-29T10:17:44.253Z,102112.09
2022-11-29T10:20:20.379Z,102114.69
2022-11-29T10:23:01.751Z,102101.63
2022-11-29T10:25:55.865Z,102100.75
2022-11-29T10:28:31.168Z,102100.69
2022-11-29T10:31:08.317Z,102103.22
2022-11-29T10:33:39.497Z,102102.31
2022-11-29T10:36:34.565Z,102099.69
2022-11-29T10:39:14.425Z,102101.38
2022-11-29T10:41:41.424Z,102103.91
2022-11-29T10:44:14.275Z,102102.16
2022-11-29T10:46:41.230Z,102101.19
2022-11-29T10:49:14.892Z,102101.09
2022-11-29T10:51:41.728Z,102101.13
2022-11-29T10:54:27.305Z,102101.97
2022-11-29T10:56:56.473Z,102095.03
2022-11-29T10:59:28.798Z,102099.34
2022-11-29T11:01:55.792Z,102102.75
2022-11-29T11:04:31.888Z,102103.75
2022-11-29T11:07:01.357Z,102100.25
2022-11-29T11:09:46.545Z,102103.59
2022-11-29T11:12:16.112Z,102103.47
2022-11-29T11:14:44.235Z,102100.72
2022-11-29T11:17:26.418Z,102093.72
2022-11-29T11:20:00.985Z,102097.97
2022-11-29T11:22:29.574Z,102092.69
2022-11-29T11:25:05.604Z,102093.44
2022-11-29T11:27:36.065Z,102096.75
2022-11-29T11:30:05.782Z,102102.78
2022-11-29T11:32:32.352Z,102105.38
2022-11-29T11:35:01.678Z,102107.06
2022-11-29T11:37:30.298Z,102103.47
2022-11-29T11:40:18.670Z,102108.53
2022-11-29T11:42:45.333Z,102105.00
2022-11-29T11:45:11.711Z,102103.28
2022-11-29T11:47:46.612Z,102109.28
2022-11-29T11:50:25.928Z,102108.53
2022-11-29T11:52:55.747Z,102109.50
2022-11-29T11:55:22.138Z,102113.94
2022-11-29T11:58:12.963Z,102110.50
2022-11-29T12:01:05.930Z,102108.75
2022-11-29T12:04:06.711Z,102118.22
2022-11-29T12:06:39.320Z,102117.22
2022-11-29T12:09:18.551Z,102124.00
2022-11-29T12:12:03.668Z,102119.66
2022-11-29T12:14:43.471Z,102117.00
2022-11-29T12:17:37.868Z,102123.88
2022-11-29T12:20:07.269Z,102127.28
2022-11-29T12:23:11.465Z,102125.41
2022-11-29T12:25:47.224Z,102127.06
2022-11-29T12:28:20.395Z,102136.47
2022-11-29T12:31:06.314Z,102143.38
2022-11-29T12:33:45.158Z,102135.56
2022-11-29T12:36:28.452Z,102141.69
2022-11-29T12:39:20.578Z,102142.44
2022-11-29T12:42:09.460Z,102147.56
2022-11-29T12:44:51.733Z,102145.78
2022-11-29T12:47:37.097Z,102149.13
2022-11-29T12:50:30.693Z,102157.72
2022-11-29T12:53:09.326Z,102162.91
2022-11-29T12:56:06.937Z,102160.31
2022-11-29T12:59:09.442Z,102162.84
2022-11-29T13:02:03.034Z,102168.06
2022-11-29T13:04:44.146Z,102163.66
2022-11-29T13:07:31.133Z,102156.63
2022-11-29T13:10:20.833Z,102159.22
2022-11-29T13:12:55.212Z,102153.19
2022-11-29T13:15:27.679Z,102164.50
2022-11-29T13:18:17.829Z,102163.59
2022-11-29T13:21:01.462Z,102169.56
2022-11-29T13:24:11.920Z,102169.56
2022-11-29T13:26:43.106Z,102173.84
2022-11-29T13:29:18.114Z,102174.69
2022-11-29T13:31:46.761Z,102168.59
2022-11-29T13:34:36.284Z,102170.34
2022-11-29T13:37:23.476Z,102169.41
2022-11-29T13:40:19.363Z,102172.81
2022-11-29T13:43:03.973Z,102177.19
2022-11-29T13:45:36.287Z,102186.81
2022-11-29T13:48:26.425Z,102186.00
2022-11-29T13:50:56.630Z,102180.75
2022-11-29T13:53:48.147Z,102176.44
2022-11-29T13:56:47.897Z,102179.94
2022-11-29T13:59:29.457Z,102185.19
2022-11-29T14:01:58.532Z,102186.16
2022-11-29T14:04:37.779Z,102185.25
2022-11-29T14:07:08.298Z,102180.06
2022-11-29T14:09:55.837Z,102183.63
2022-11-29T14:12:28.810Z,102181.88
2022-11-29T14:15:00.791Z,102171.59
2022-11-29T14:17:57.315Z,102182.94
2022-11-29T14:20:23.678Z,102179.69
2022-11-29T14:23:05.441Z,102184.13
2022-11-29T14:28:23.317Z,102184.34
2022-11-29T14:30:52.173Z,102180.22
2022-11-29T14:33:31.979Z,102186.44
2022-11-29T14:36:19.898Z,102190.03
2022-11-29T14:39:40.951Z,102191.16
2022-11-29T14:42:23.459Z,102196.56
2022-11-29T14:44:51.591Z,102197.56
2022-11-29T14:47:30.130Z,102203.75
2022-11-29T14:49:59.336Z,102203.03
2022-11-29T14:52:32.238Z,102201.34
2022-11-29T14:55:00.818Z,102197.13
2022-11-29T14:58:06.340Z,102202.41
2022-11-29T15:00:33.814Z,102203.38
2022-11-29T15:03:22.676Z,102201.75
2022-11-29T15:06:08.640Z,102193.22
2022-11-29T15:08:55.350Z,102192.50
2022-11-29T15:11:50.356Z,102191.69
2022-11-29T15:14:53.639Z,102193.56
2022-11-29T15:17:47.501Z,102202.31
2022-11-29T15:20:29.199Z,102202.53
2022-11-29T15:23:00.924Z,102198.28
2022-11-29T15:25:31.074Z,102205.31
2022-11-29T15:28:06.119Z,102206.31
2022-11-29T15:30:40.722Z,102201.28
2022-11-29T15:33:23.270Z,102211.72
2022-11-29T15:35:52.805Z,102214.44
2022-11-29T15:38:20.984Z,102216.25
2022-11-29T15:40:53.202Z,102214.63
2022-11-29T15:43:35.979Z,102221.63
2022-11-29T15:46:02.612Z,102213.91
2022-11-29T15:48:31.852Z,102214.78
2022-11-29T15:51:04.191Z,102227.75
2022-11-29T15:53:35.501Z,102225.13
2022-11-29T15:56:05.238Z,102227.72
2022-11-29T15:58:33.953Z,102231.09
2022-11-29T16:01:01.931Z,102224.09
2022-11-29T16:03:32.433Z,102234.41
2022-11-29T16:06:17.799Z,102242.13
2022-11-29T16:08:44.408Z,102236.88
2022-11-29T16:11:17.781Z,102237.75
2022-11-29T16:14:02.724Z,102234.28
2022-11-29T16:16:32.717Z,102241.13
2022-11-29T16:19:28.843Z,102250.63
2022-11-29T16:22:23.671Z,102239.38
2022-11-29T16:24:55.931Z,102245.41
2022-11-29T16:27:23.430Z,102238.50
2022-11-29T16:29:54.921Z,102237.56
2022-11-29T16:32:31.642Z,102249.69
2022-11-29T16:35:05.765Z,102236.66
2022-11-29T16:37:40.989Z,102253.97
2022-11-29T16:40:20.049Z,102254.03
2022-11-29T16:43:04.960Z,102250.47
2022-11-29T16:45:35.018Z,102249.56
2022-11-29T16:48:02.896Z,102250.41
2022-11-29T16:50:31.064Z,102244.38
2022-11-29T16:53:36.865Z,102249.50
2022-11-29T16:56:05.472Z,102248.59
2022-11-29T16:58:35.460Z,102249.50
2022-11-29T17:01:24.712Z,102247.81
2022-11-29T17:03:51.603Z,102240.03
2022-11-29T17:06:22.508Z,102245.22
2022-11-29T17:08:51.036Z,102250.47
2022-11-29T17:11:30.258Z,102254.75
2022-11-29T17:13:56.860Z,102256.50
2022-11-29T17:16:24.790Z,102263.38
2022-11-29T17:18:52.814Z,102260.78
2022-11-29T17:21:24.604Z,102260.78
2022-11-29T17:23:51.994Z,102264.28
2022-11-29T17:26:18.925Z,102265.13
2022-11-29T17:28:46.948Z,102268.56
2022-11-29T17:31:19.260Z,102265.06
2022-11-29T17:33:45.939Z,102268.56
2022-11-29T17:36:15.293Z,102277.22
2022-11-29T17:38:43.286Z,102273.78
2022-11-29T17:41:15.301Z,102285.06
2022-11-29T17:43:42.278Z,102279.88
2022-11-29T17:46:21.302Z,102278.19
2022-11-29T17:48:48.103Z,102280.75
2022-11-29T17:51:43.809Z,102280.75
2022-11-29T17:54:04.433Z,102280.72
2022-11-29T17:56:31.468Z,102280.69
2022-11-29T17:58:59.647Z,102285.06
2022-11-29T18:01:32.066Z,102282.50
2022-11-29T18:04:00.246Z,102285.91
2022-11-29T18:06:29.228Z,102286.75
2022-11-29T18:08:58.743Z,102295.41
2022-11-29T18:11:40.328Z,102291.09
2022-11-29T18:14:13.730Z,102293.69
2022-11-29T18:16:40.356Z,102293.69
2022-11-29T18:19:10.515Z,102298.88
2022-11-29T18:21:38.192Z,102299.72
2022-11-29T18:24:06.386Z,102301.47
2022-11-29T18:26:34.634Z,102304.91
2022-11-29T18:29:01.409Z,102306.59
2022-11-29T18:31:37.944Z,102310.88
2022-11-29T18:34:07.149Z,102315.19
2022-11-29T18:36:36.220Z,102308.31
2022-11-29T18:39:05.848Z,102309.19
2022-11-29T18:41:32.888Z,102310.03
2022-11-29T18:44:01.850Z,102314.38
2022-11-29T18:46:32.924Z,102318.63
2022-11-29T18:49:01.022Z,102316.03
2022-11-29T18:51:29.448Z,102314.38
2022-11-29T18:53:56.480Z,102316.97
2022-11-29T18:56:25.146Z,102316.06
2022-11-29T18:59:00.521Z,102318.66
2022-11-29T19:01:29.493Z,102322.97
2022-11-29T19:03:58.602Z,102325.56
2022-11-29T19:06:29.399Z,102329.06
2022-11-29T19:09:01.086Z,102326.47
2022-11-29T19:11:30.389Z,102336.84
2022-11-29T19:13:59.945Z,102337.69
2022-11-29T19:16:28.998Z,102329.91
2022-11-29T19:18:57.228Z,102329.06
2022-11-29T19:21:25.814Z,102330.75
2022-11-29T19:23:57.238Z,102328.16
2022-11-29T19:26:26.241Z,102332.47
2022-11-29T19:28:54.102Z,102331.59
2022-11-29T19:31:26.914Z,102338.53
2022-11-29T19:33:54.735Z,102330.69
2022-11-29T19:36:31.738Z,102328.94
2022-11-29T19:39:01.336Z,102331.53
2022-11-29T19:41:30.879Z,102335.88
2022-11-29T19:43:58.895Z,102343.66
2022-11-29T19:46:28.314Z,102343.72
2022-11-29T19:48:56.251Z,102341.94
2022-11-29T19:51:23.555Z,102345.38
2022-11-29T19:53:55.105Z,102338.47
2022-11-29T19:56:22.377Z,102344.50
2022-11-29T19:58:50.023Z,102342.81
2022-11-29T20:01:24.393Z,102347.97
2022-11-29T20:03:52.490Z,102348.00
2022-11-29T20:06:19.171Z,102349.72
2022-11-29T20:08:45.998Z,102353.19
2022-11-29T20:11:18.512Z,102348.00
2022-11-29T20:13:47.729Z,102355.75
2022-11-29T20:16:18.145Z,102367.88
2022-11-29T20:18:50.652Z,102361.84
2022-11-29T20:21:21.018Z,102365.28
2022-11-29T20:23:47.558Z,102366.13
2022-11-29T20:26:19.333Z,102362.69
2022-11-29T20:28:46.891Z,102357.53
2022-11-29T20:31:16.743Z,102360.09
2022-11-29T20:33:44.722Z,102366.13
2022-11-29T20:36:42.897Z,102367.03
2022-11-29T20:39:43.532Z,102367.94
2022-11-29T20:42:28.586Z,102367.03
2022-11-29T20:44:57.229Z,102367.88
2022-11-29T20:47:27.165Z,102368.72
2022-11-29T20:49:54.245Z,102363.53
2022-11-29T20:52:40.947Z,102368.72
2022-11-29T20:55:07.791Z,102375.66
2022-11-29T20:57:34.272Z,102380.06
2022-11-29T21:00:00.709Z,102387.84
2022-11-29T21:02:27.095Z,102380.91
2022-11-29T21:04:53.492Z,102387.84
2022-11-29T21:07:19.923Z,102381.75
2022-11-29T21:09:46.446Z,102386.06
2022-11-29T21:12:13.331Z,102385.19
2022-11-29T21:14:40.052Z,102384.31
2022-11-29T21:17:07.887Z,102387.78
2022-11-29T21:19:34.739Z,102396.41
2022-11-29T21:22:23.068Z,102396.41
2022-11-29T21:25:05.072Z,102398.13
2022-11-29T21:27:33.595Z,102397.28
2022-11-29T21:30:03.219Z,102395.53
2022-11-29T21:32:30.734Z,102395.47
2022-11-29T21:34:57.868Z,102396.38
2022-11-29T21:37:29.805Z,102398.06
2022-11-29T21:39:57.195Z,102403.28
2022-11-29T21:42:23.667Z,102404.16
2022-11-29T21:44:50.032Z,102405.91
2022-11-29T21:47:16.482Z,102411.06
2022-11-29T21:49:42.883Z,102406.75
2022-11-29T21:52:09.299Z,102414.53
2022-11-29T21:54:35.664Z,102410.22
2022-11-29T21:57:02.149Z,102409.31
2022-11-29T21:59:29.375Z,102414.50
2022-11-29T22:01:55.935Z,102417.94
2022-11-29T22:04:23.274Z,102415.34
2022-11-29T22:06:49.719Z,102417.03
2022-11-29T22:09:16.156Z,102422.22
2022-11-29T22:11:42.636Z,102421.38
2022-11-29T22:14:14.562Z,102421.38
2022-11-29T22:16:58.711Z,102416.19
2022-11-29T22:19:27.459Z,102421.38
2022-11-29T22:22:00.560Z,102420.53
2022-11-29T22:24:29.535Z,102423.13
2022-11-29T22:26:56.655Z,102418.78
2022-11-29T22:29:24.059Z,102416.19
2022-11-29T22:31:53.379Z,102424.81
2022-11-29T22:34:20.458Z,102429.16
2022-11-29T22:36:46.966Z,102430.91
2022-11-29T22:39:14.122Z,102431.78
2022-11-29T22:41:41.344Z,102426.63
2022-11-29T22:44:08.053Z,102426.63
2022-11-29T22:46:37.345Z,102424.91
2022-11-29T22:49:03.865Z,102433.56
2022-11-29T22:51:32.470Z,102435.31
2022-11-29T22:54:01.453Z,102437.91
2022-11-29T22:56:31.039Z,102440.50
2022-11-29T22:58:57.666Z,102444.00
2022-11-29T23:01:26.253Z,102438.81
2022-11-29T23:03:54.640Z,102437.97
2022-11-29T23:06:26.674Z,102441.41
2022-11-29T23:08:55.587Z,102448.34
2022-11-29T23:11:25.122Z,102449.19
2022-11-29T23:13:51.680Z,102445.75
2022-11-29T23:16:24.808Z,102452.69
2022-11-29T23:18:51.883Z,102444.09
2022-11-29T23:21:24.128Z,102455.31
2022-11-29T23:23:56.029Z,102448.41
2022-11-29T23:26:29.037Z,102450.16
2022-11-29T23:28:56.420Z,102451.03
2022-11-29T23:31:24.180Z,102454.50
2022-11-29T23:33:50.926Z,102454.50
2022-11-29T23:36:17.808Z,102451.88
2022-11-29T23:38:44.523Z,102446.69
2022-11-29T23:41:11.651Z,102451.91
2022-11-29T23:43:40.599Z,102456.19
2022-11-29T23:46:21.722Z,102451.91
2022-11-29T23:48:48.581Z,102452.78
2022-11-29T23:51:16.065Z,102454.53
2022-11-29T23:53:43.104Z,102449.34
2022-11-29T23:56:14.970Z,102453.63
2022-11-29T23:58:42.185Z,102457.13
